Time,TemperatureF,DewpointF,PressureIn,WindDirection,WindDirectionDegrees,WindSpeedMPH,WindSpeedGustMPH,Humidity,HourlyPrecipIn,Conditions,Clouds,dailyrainin,SoftwareType,DateUTC
2013-01-11 00:03:00,41.0,30.0,-100.00,NW,319,6.0,12.0,64,0.00,,,-99.99,,2013-01-11 05:03:00,
2013-01-11 00:13:00,39.0,28.0,-100.00,NNW,331,6.0,12.0,63,0.00,,,-99.99,,2013-01-11 05:13:00,
2013-01-11 00:22:00,40.0,28.0,-100.00,WNW,296,7.0,12.0,62,0.00,,,-99.99,,2013-01-11 05:22:00,
2013-01-11 00:33:00,40.0,28.0,-100.00,WNW,300,6.0,12.0,62,0.00,,,-99.99,,2013-01-11 05:33:00,
2013-01-11 00:43:00,41.0,30.0,-100.00,WNW,303,6.0,12.0,62,0.00,,,-99.99,,2013-01-11 05:43:00,
2013-01-11 00:52:00,40.0,30.0,-100.00,NW,307,6.0,12.0,64,0.00,,,-99.99,,2013-01-11 05:52:00,
2013-01-11 01:03:00,40.0,28.0,-100.00,WNW,290,6.0,12.0,62,0.00,,,-99.99,,2013-01-11 06:03:00,
2013-01-11 01:12:00,39.0,30.0,-100.00,NNW,333,7.0,12.0,66,0.00,,,-99.99,,2013-01-11 06:12:00,
2013-01-11 01:22:00,42.0,30.0,-100.00,NW,307,7.0,12.0,62,0.00,,,-99.99,,2013-01-11 06:22:00,
2013-01-11 01:32:00,43.0,32.0,-100.00,WNW,303,7.0,12.0,60,0.00,,,-99.99,,2013-01-11 06:32:00,
2013-01-11 01:42:00,42.0,30.0,-100.00,North,350,6.0,12.0,63,0.00,,,-99.99,,2013-01-11 06:42:00,
2013-01-11 01:52:00,41.0,30.0,-100.00,WNW,289,4.0,12.0,63,0.00,,,-99.99,,2013-01-11 06:52:00,
2013-01-11 02:02:00,41.0,30.0,-100.00,NW,321,5.0,12.0,62,0.00,,,-99.99,,2013-01-11 07:02:00,
2013-01-11 02:12:00,42.0,30.0,-100.00,WNW,292,6.0,12.0,60,0.00,,,-99.99,,2013-01-11 07:12:00,
2013-01-11 02:22:00,42.0,30.0,-100.00,WNW,292,7.0,12.0,62,0.00,,,-99.99,,2013-01-11 07:22:00,
2013-01-11 02:32:00,41.0,28.0,-100.00,NW,310,6.0,12.0,60,0.00,,,-99.99,,2013-01-11 07:32:00,
2013-01-11 02:42:00,40.0,28.0,-100.00,NW,309,5.0,12.0,60,0.00,,,-99.99,,2013-01-11 07:42:00,
2013-01-11 02:52:00,43.0,30.0,-100.00,WNW,300,4.0,12.0,60,0.00,,,-99.99,,2013-01-11 07:52:00,
2013-01-11 03:02:00,42.0,30.0,-100.00,WNW,300,6.0,12.0,60,0.00,,,-99.99,,2013-01-11 08:02:00,
2013-01-11 03:12:00,42.0,30.0,-100.00,NW,312,4.0,4.0,60,0.00,,,-99.99,,2013-01-11 08:12:00,
2013-01-11 03:22:00,43.0,30.0,-100.00,NNW,327,3.0,4.0,60,0.00,,,-99.99,,2013-01-11 08:22:00,
2013-01-11 03:32:00,41.0,28.0,-100.00,North,351,3.0,4.0,60,0.00,,,-99.99,,2013-01-11 08:32:00,
2013-01-11 03:42:00,41.0,28.0,-100.00,WNW,295,4.0,6.0,60,0.00,,,-99.99,,2013-01-11 08:42:00,
2013-01-11 03:52:00,42.0,30.0,-100.00,WNW,303,6.0,8.0,59,0.00,,,-99.99,,2013-01-11 08:52:00,
2013-01-11 04:02:00,42.0,30.0,-100.00,WNW,289,6.0,8.0,59,0.00,,,-99.99,,2013-01-11 09:02:00,
2013-01-11 04:12:00,42.0,30.0,-100.00,WNW,288,6.0,8.0,60,0.00,,,-99.99,,2013-01-11 09:12:00,
2013-01-11 04:23:00,42.0,30.0,-100.00,NW,326,6.0,8.0,59,0.00,,,-99.99,,2013-01-11 09:23:00,
2013-01-11 04:32:00,42.0,30.0,-100.00,NW,309,6.0,8.0,60,0.00,,,-99.99,,2013-01-11 09:32:00,
2013-01-11 04:42:00,42.0,30.0,-100.00,NW,312,7.0,10.0,60,0.00,,,-99.99,,2013-01-11 09:42:00,
2013-01-11 04:52:00,44.0,32.0,-100.00,NW,323,6.0,10.0,60,0.00,,,-99.99,,2013-01-11 09:52:00,
2013-01-11 05:02:00,43.0,30.0,-100.00,North,351,6.0,10.0,60,0.00,,,-99.99,,2013-01-11 10:02:00,
2013-01-11 05:12:00,43.0,32.0,-100.00,NW,307,6.0,10.0,62,0.00,,,-99.99,,2013-01-11 10:12:00,
2013-01-11 05:22:00,43.0,32.0,-100.00,NNW,347,4.0,10.0,62,0.00,,,-99.99,,2013-01-11 10:22:00,
2013-01-11 05:32:00,43.0,32.0,-100.00,NW,326,5.0,10.0,63,0.00,,,-99.99,,2013-01-11 10:32:00,
2013-01-11 05:42:00,44.0,32.0,-100.00,NNW,341,4.0,10.0,64,0.00,,,-99.99,,2013-01-11 10:42:00,
2013-01-11 05:52:00,43.0,32.0,-100.00,NNW,333,4.0,10.0,66,0.00,,,-99.99,,2013-01-11 10:52:00,
2013-01-11 06:03:00,44.0,34.0,-100.00,NW,304,3.0,10.0,68,2.83,,,-99.99,,2013-01-11 11:03:00,
2013-01-11 06:12:00,42.0,36.0,-100.00,NNE,29,4.0,10.0,80,-99.99,,,-99.99,,2013-01-11 11:12:00,
2013-01-11 06:22:00,43.0,37.0,-100.00,NNW,331,2.0,10.0,80,6.22,,,-99.99,,2013-01-11 11:22:00,
2013-01-11 06:33:00,43.0,37.0,-100.00,WNW,297,2.0,10.0,85,15.31,,,-99.99,,2013-01-11 11:33:00,
2013-01-11 06:43:00,40.0,37.0,-100.00,NW,316,5.0,10.0,90,20.39,,,-99.99,,2013-01-11 11:43:00,
2013-01-11 06:53:00,42.0,39.0,-100.00,NNW,333,6.0,10.0,90,0.00,,,-99.99,,2013-01-11 11:53:00,
2013-01-11 07:03:00,41.0,36.0,-100.00,NW,312,4.0,10.0,86,0.00,,,-99.99,,2013-01-11 12:03:00,
2013-01-11 07:12:00,42.0,37.0,-100.00,NNW,340,5.0,10.0,86,0.00,,,-99.99,,2013-01-11 12:12:00,
2013-01-11 07:22:00,41.0,36.0,-100.00,NNW,331,5.0,10.0,86,0.00,,,-99.99,,2013-01-11 12:22:00,
2013-01-11 07:33:00,42.0,37.0,-100.00,West,269,5.0,10.0,86,0.00,,,-99.99,,2013-01-11 12:33:00,
2013-01-11 07:43:00,45.0,39.0,-100.00,NNW,328,6.0,10.0,85,0.00,,,-99.99,,2013-01-11 12:43:00,
2013-01-11 07:52:00,44.0,39.0,-100.00,NW,319,6.0,10.0,88,0.00,,,-99.99,,2013-01-11 12:52:00,
2013-01-11 08:03:00,45.0,39.0,-100.00,NW,310,6.0,10.0,86,0.00,,,-99.99,,2013-01-11 13:03:00,
2013-01-11 08:13:00,45.0,39.0,-100.00,WNW,302,6.0,10.0,86,0.00,,,-99.99,,2013-01-11 13:13:00,
2013-01-11 08:22:00,44.0,41.0,-100.00,NW,321,6.0,10.0,89,0.00,,,-99.99,,2013-01-11 13:22:00,
2013-01-11 08:33:00,45.0,39.0,-100.00,WNW,303,6.0,10.0,86,0.00,,,-99.99,,2013-01-11 13:33:00,
2013-01-11 08:43:00,45.0,41.0,-100.00,NNW,328,4.0,10.0,88,15.31,,,-99.99,,2013-01-11 13:43:00,
2013-01-11 08:52:00,43.0,39.0,-100.00,NW,319,4.0,10.0,89,4.53,,,-99.99,,2013-01-11 13:52:00,
2013-01-11 09:03:00,44.0,41.0,-100.00,NNW,336,6.0,10.0,93,2.83,,,-99.99,,2013-01-11 14:03:00,
2013-01-11 09:12:00,44.0,41.0,-100.00,North,351,6.0,10.0,93,0.00,,,-99.99,,2013-01-11 14:12:00,
2013-01-11 09:23:00,46.0,43.0,-100.00,NNW,328,5.0,10.0,93,0.00,,,-99.99,,2013-01-11 14:23:00,
2013-01-11 09:33:00,45.0,43.0,-100.00,NW,320,4.0,10.0,93,0.00,,,-99.99,,2013-01-11 14:33:00,
2013-01-11 09:43:00,45.0,43.0,-100.00,NNW,341,3.0,10.0,93,1.14,,,-99.99,,2013-01-11 14:43:00,
2013-01-11 09:53:00,44.0,43.0,-100.00,NW,313,3.0,10.0,95,10.79,,,-99.99,,2013-01-11 14:53:00,
2013-01-11 10:03:00,43.0,41.0,-100.00,NW,307,3.0,10.0,97,-99.99,,,-99.99,,2013-01-11 15:03:00,
2013-01-11 10:13:00,44.0,43.0,-100.00,West,268,1.0,10.0,98,12.48,,,-99.99,,2013-01-11 15:13:00,
2013-01-11 10:23:00,45.0,43.0,-100.00,NW,306,1.0,10.0,98,-99.99,,,-99.99,,2013-01-11 15:23:00,
2013-01-11 10:33:00,45.0,43.0,-100.00,WSW,254,1.0,10.0,99,-99.99,,,-99.99,,2013-01-11 15:33:00,
2013-01-11 10:43:00,46.0,45.0,-100.00,West,265,1.0,10.0,99,-99.99,,,-99.99,,2013-01-11 15:43:00,
2013-01-11 10:52:00,46.0,45.0,-100.00,WSW,248,1.0,10.0,99,0.00,,,-99.99,,2013-01-11 15:52:00,
2013-01-11 11:03:00,46.0,45.0,-100.00,ESE,104,2.0,10.0,100,1.14,,,-99.99,,2013-01-11 16:03:00,
2013-01-11 11:12:00,46.0,45.0,-100.00,West,261,3.0,10.0,100,12.48,,,-99.99,,2013-01-11 16:12:00,
2013-01-11 11:23:00,49.0,48.0,-100.00,NNW,327,6.0,10.0,100,7.36,,,-99.99,,2013-01-11 16:23:00,
2013-01-11 11:33:00,49.0,48.0,-100.00,North,352,6.0,10.0,100,7.36,,,-99.99,,2013-01-11 16:33:00,
2013-01-11 11:43:00,50.0,48.0,-100.00,North,354,5.0,10.0,99,6.22,,,-99.99,,2013-01-11 16:43:00,
2013-01-11 11:53:00,51.0,50.0,-100.00,North,350,7.0,10.0,99,10.79,,,-99.99,,2013-01-11 16:53:00,
2013-01-11 12:03:00,51.0,50.0,-100.00,North,354,5.0,10.0,99,1.14,,,-99.99,,2013-01-11 17:03:00,
2013-01-11 12:12:00,51.0,50.0,-100.00,NW,321,5.0,10.0,99,1.14,,,-99.99,,2013-01-11 17:12:00,
2013-01-11 12:22:00,51.0,48.0,-100.00,North,1,6.0,10.0,98,4.53,,,-99.99,,2013-01-11 17:22:00,
2013-01-11 12:33:00,50.0,48.0,-100.00,North,350,7.0,10.0,98,18.70,,,-99.99,,2013-01-11 17:33:00,
2013-01-11 12:43:00,52.0,50.0,-100.00,NNW,333,9.0,12.0,99,0.00,,,-99.99,,2013-01-11 17:43:00,
2013-01-11 12:53:00,53.0,52.0,-100.00,NW,324,9.0,12.0,98,0.00,,,-99.99,,2013-01-11 17:53:00,
2013-01-11 13:04:00,53.0,52.0,-100.00,NNE,19,9.0,12.0,98,0.00,,,-99.99,,2013-01-11 18:04:00,
2013-01-11 13:13:00,53.0,52.0,-100.00,North,355,10.0,12.0,97,0.00,,,-99.99,,2013-01-11 18:13:00,
2013-01-11 13:23:00,53.0,52.0,-100.00,NE,50,11.0,15.0,97,0.00,,,-99.99,,2013-01-11 18:23:00,
2013-01-11 13:33:00,53.0,52.0,-100.00,North,11,11.0,15.0,97,0.00,,,-99.99,,2013-01-11 18:33:00,
2013-01-11 13:43:00,54.0,52.0,-100.00,North,11,9.0,15.0,94,0.00,,,-99.99,,2013-01-11 18:43:00,
2013-01-11 13:53:00,54.0,52.0,-100.00,North,0,9.0,15.0,94,0.00,,,-99.99,,2013-01-11 18:53:00,
2013-01-11 14:03:00,54.0,52.0,-100.00,NE,36,7.0,15.0,94,0.00,,,-99.99,,2013-01-11 19:03:00,
2013-01-11 14:12:00,55.0,52.0,-100.00,NNE,16,8.0,15.0,93,0.00,,,-99.99,,2013-01-11 19:12:00,
2013-01-11 14:22:00,55.0,52.0,-100.00,NE,53,7.0,15.0,91,0.00,,,-99.99,,2013-01-11 19:22:00,
2013-01-11 14:33:00,55.0,50.0,-100.00,ENE,62,6.0,15.0,90,0.00,,,-99.99,,2013-01-11 19:33:00,
2013-01-11 14:43:00,56.0,52.0,-100.00,North,7,7.0,15.0,89,0.00,,,-99.99,,2013-01-11 19:43:00,
2013-01-11 14:53:00,57.0,52.0,-100.00,NE,45,5.0,15.0,89,0.00,,,-99.99,,2013-01-11 19:53:00,
2013-01-11 15:03:00,57.0,52.0,-100.00,NE,50,9.0,15.0,86,0.00,,,-99.99,,2013-01-11 20:03:00,
2013-01-11 15:13:00,57.0,52.0,-100.00,North,11,7.0,15.0,84,0.00,,,-99.99,,2013-01-11 20:13:00,
2013-01-11 15:22:00,58.0,52.0,-100.00,North,0,6.0,15.0,84,0.00,,,-99.99,,2013-01-11 20:22:00,
2013-01-11 15:33:00,57.0,50.0,-100.00,NE,42,8.0,15.0,82,0.00,,,-99.99,,2013-01-11 20:33:00,
2013-01-11 15:43:00,58.0,52.0,-100.00,NNW,337,9.0,15.0,82,0.00,,,-99.99,,2013-01-11 20:43:00,
2013-01-11 15:52:00,58.0,52.0,-100.00,NNE,18,6.0,15.0,84,0.00,,,-99.99,,2013-01-11 20:52:00,
2013-01-11 16:03:00,57.0,50.0,-100.00,NNE,18,4.0,15.0,82,0.00,,,-99.99,,2013-01-11 21:03:00,
2013-01-11 16:13:00,57.0,52.0,-100.00,NE,43,4.0,15.0,84,0.00,,,-99.99,,2013-01-11 21:13:00,
2013-01-11 16:23:00,57.0,50.0,-100.00,NNE,31,4.0,15.0,82,0.00,,,-99.99,,2013-01-11 21:23:00,
2013-01-11 16:33:00,57.0,50.0,-100.00,NNE,16,4.0,15.0,82,0.00,,,-99.99,,2013-01-11 21:33:00,
2013-01-11 16:42:00,57.0,50.0,-100.00,NNE,25,2.0,15.0,82,0.00,,,-99.99,,2013-01-11 21:42:00,
2013-01-11 16:52:00,57.0,50.0,-100.00,NW,317,1.0,15.0,82,0.00,,,-99.99,,2013-01-11 21:52:00,
2013-01-11 17:03:00,56.0,50.0,-100.00,North,354,1.0,15.0,85,0.00,,,-99.99,,2013-01-11 22:03:00,
2013-01-11 17:12:00,55.0,50.0,-100.00,NNE,26,2.0,15.0,85,0.00,,,-99.99,,2013-01-11 22:12:00,
2013-01-11 17:22:00,56.0,52.0,-100.00,North,357,2.0,15.0,86,0.00,,,-99.99,,2013-01-11 22:22:00,
2013-01-11 17:33:00,56.0,52.0,-100.00,NNW,331,2.0,15.0,89,0.00,,,-99.99,,2013-01-11 22:33:00,
2013-01-11 17:42:00,56.0,52.0,-100.00,NNE,19,1.0,15.0,88,0.00,,,-99.99,,2013-01-11 22:42:00,
2013-01-11 17:52:00,56.0,52.0,-100.00,North,355,1.0,15.0,88,0.00,,,-99.99,,2013-01-11 22:52:00,
2013-01-11 18:02:00,57.0,52.0,-100.00,North,1,2.0,15.0,88,0.00,,,-99.99,,2013-01-11 23:02:00,
2013-01-11 18:13:00,54.0,50.0,-100.00,North,4,2.0,15.0,88,0.00,,,-99.99,,2013-01-11 23:13:00,
2013-01-11 18:23:00,56.0,52.0,-100.00,NNE,14,1.0,15.0,88,0.00,,,-99.99,,2013-01-11 23:23:00,
2013-01-11 18:32:00,55.0,50.0,-100.00,North,350,1.0,15.0,88,0.00,,,-99.99,,2013-01-11 23:32:00,
2013-01-11 18:43:00,55.0,50.0,-100.00,NNW,347,2.0,15.0,86,0.00,,,-99.99,,2013-01-11 23:43:00,
2013-01-11 18:53:00,55.0,50.0,-100.00,North,4,3.0,15.0,85,0.00,,,-99.99,,2013-01-11 23:53:00,
2013-01-11 19:03:00,55.0,48.0,-100.00,NNE,15,4.0,15.0,82,0.00,,,-99.99,,2013-01-12 00:03:00,
2013-01-11 19:12:00,55.0,48.0,-100.00,NNE,21,5.0,15.0,82,0.00,,,-99.99,,2013-01-12 00:12:00,
2013-01-11 19:23:00,54.0,46.0,-100.00,NE,40,6.0,15.0,80,0.00,,,-99.99,,2013-01-12 00:23:00,
2013-01-11 19:33:00,56.0,48.0,-100.00,NNE,15,4.0,15.0,81,0.00,,,-99.99,,2013-01-12 00:33:00,
2013-01-11 19:43:00,55.0,48.0,-100.00,NNE,22,3.0,15.0,80,0.00,,,-99.99,,2013-01-12 00:43:00,
2013-01-11 19:52:00,55.0,48.0,-100.00,NE,55,3.0,15.0,81,0.00,,,-99.99,,2013-01-12 00:52:00,
2013-01-11 20:03:00,55.0,48.0,-100.00,North,9,2.0,15.0,81,0.00,,,-99.99,,2013-01-12 01:03:00,
2013-01-11 20:12:00,54.0,46.0,-100.00,North,11,2.0,15.0,81,0.00,,,-99.99,,2013-01-12 01:12:00,
2013-01-11 20:22:00,53.0,46.0,-100.00,North,357,1.0,15.0,81,0.00,,,-99.99,,2013-01-12 01:22:00,
2013-01-11 20:33:00,53.0,46.0,-100.00,North,0,2.0,15.0,82,0.00,,,-99.99,,2013-01-12 01:33:00,
2013-01-11 20:43:00,53.0,46.0,-100.00,North,5,2.0,15.0,84,0.00,,,-99.99,,2013-01-12 01:43:00,
2013-01-11 20:52:00,52.0,46.0,-100.00,NNW,341,1.0,15.0,84,0.00,,,-99.99,,2013-01-12 01:52:00,
2013-01-11 21:02:00,52.0,46.0,-100.00,NNW,341,1.0,15.0,84,0.00,,,-99.99,,2013-01-12 02:02:00,
2013-01-11 21:12:00,52.0,48.0,-100.00,North,2,1.0,15.0,88,0.00,,,-99.99,,2013-01-12 02:12:00,
2013-01-11 21:22:00,51.0,46.0,-100.00,North,354,1.0,15.0,86,0.00,,,-99.99,,2013-01-12 02:22:00,
2013-01-11 21:33:00,51.0,46.0,-100.00,North,351,2.0,15.0,88,0.00,,,-99.99,,2013-01-12 02:33:00,
2013-01-11 21:43:00,53.0,48.0,-100.00,North,4,2.0,15.0,89,0.00,,,-99.99,,2013-01-12 02:43:00,
2013-01-11 21:53:00,50.0,46.0,-100.00,North,0,1.0,15.0,89,0.00,,,-99.99,,2013-01-12 02:53:00,
2013-01-11 22:03:00,51.0,46.0,-100.00,North,350,2.0,15.0,89,0.00,,,-99.99,,2013-01-12 03:03:00,
2013-01-11 22:12:00,52.0,46.0,-100.00,NNE,33,2.0,15.0,88,0.00,,,-99.99,,2013-01-12 03:12:00,
2013-01-11 22:22:00,51.0,46.0,-100.00,North,1,2.0,15.0,88,0.00,,,-99.99,,2013-01-12 03:22:00,
2013-01-11 22:33:00,50.0,46.0,-100.00,North,357,2.0,15.0,90,0.00,,,-99.99,,2013-01-12 03:33:00,
2013-01-11 22:43:00,50.0,46.0,-100.00,North,357,2.0,15.0,90,0.00,,,-99.99,,2013-01-12 03:43:00,
2013-01-11 22:52:00,50.0,46.0,-100.00,NNE,31,2.0,15.0,90,0.00,,,-99.99,,2013-01-12 03:52:00,
2013-01-11 23:02:00,52.0,48.0,-100.00,North,4,2.0,15.0,90,0.00,,,-99.99,,2013-01-12 04:02:00,
2013-01-11 23:12:00,52.0,48.0,-100.00,NW,320,2.0,15.0,90,0.00,,,-99.99,,2013-01-12 04:12:00,
2013-01-11 23:22:00,52.0,48.0,-100.00,NNW,343,2.0,15.0,89,0.00,,,-99.99,,2013-01-12 04:22:00,
2013-01-11 23:32:00,50.0,46.0,-100.00,NW,310,2.0,15.0,90,0.00,,,-99.99,,2013-01-12 04:32:00,
2013-01-11 23:42:00,50.0,46.0,-100.00,North,355,2.0,15.0,91,0.00,,,-99.99,,2013-01-12 04:42:00,
2013-01-11 23:52:00,51.0,46.0,-100.00,NNW,328,2.0,15.0,90,0.00,,,-99.99,,2013-01-12 04:52:00,